Time;durP1;ratioP1;P1;durP2;ratioP2;P2;SDS_P1;SDS_P2;PMS_P1;PMS_P2;Temp;Humidity;BMP_temperature;BMP_pressure;BME280_temperature;BME280_humidity;BME280_pressure;Samples;Min_cycle;Max_cycle;Signal;HPM_P1;HPM_P2
2023/03/11 00:02:25;;;;;;;6.97;2.47;;;;;;;0.91;100.00;100588.59;4946412;29;20079;-73
2023/03/11 00:04:52;;;;;;;5.30;1.40;;;;;;;0.86;100.00;100594.94;4940176;29;20036;-71
2023/03/11 00:07:18;;;;;;;7.10;2.17;;;;;;;0.86;100.00;100593.19;4926281;23;20058;-74
2023/03/11 00:09:45;;;;;;;9.25;1.67;;;;;;;0.80;100.00;100598.69;4907251;29;20491;-74
2023/03/11 00:12:12;;;;;;;5.15;1.80;;;;;;;0.78;100.00;100591.06;4899712;29;20924;-73
2023/03/11 00:14:40;;;;;;;7.95;1.52;;;;;;;0.77;100.00;100597.13;4893581;29;20060;-74
2023/03/11 00:17:07;;;;;;;5.65;2.22;;;;;;;0.72;100.00;100606.88;4896503;29;20048;-74
2023/03/11 00:19:33;;;;;;;8.52;2.25;;;;;;;0.71;100.00;100601.84;4908755;29;20056;-73
2023/03/11 00:22:01;;;;;;;8.10;1.90;;;;;;;0.75;100.00;100606.72;4902463;29;20063;-73
2023/03/11 00:24:28;;;;;;;8.65;1.45;;;;;;;0.74;100.00;100612.78;4908817;29;20068;-73
2023/03/11 00:26:55;;;;;;;8.13;1.42;;;;;;;0.76;100.00;100616.13;4911038;29;20575;-73
2023/03/11 00:29:21;;;;;;;6.50;1.55;;;;;;;0.72;100.00;100616.41;4893269;29;20050;-73
2023/03/11 00:31:48;;;;;;;8.02;1.80;;;;;;;0.73;100.00;100625.81;4908099;29;20441;-73
2023/03/11 00:34:14;;;;;;;2.88;1.52;;;;;;;0.74;100.00;100628.28;4901707;29;20055;-74
2023/03/11 00:36:41;;;;;;;4.97;1.55;;;;;;;0.71;100.00;100633.66;4904011;29;20135;-74
2023/03/11 00:39:09;;;;;;;7.80;1.58;;;;;;;0.68;100.00;100620.91;4905641;29;20055;-74
2023/03/11 00:41:36;;;;;;;3.10;1.17;;;;;;;0.75;100.00;100642.06;4904751;29;20051;-75
2023/03/11 00:44:03;;;;;;;4.97;1.20;;;;;;;0.74;100.00;100638.63;4905069;29;20465;-74
2023/03/11 00:46:30;;;;;;;5.22;1.33;;;;;;;0.75;100.00;100653.19;4900793;29;20099;-74
2023/03/11 00:48:57;;;;;;;8.77;1.60;;;;;;;0.73;100.00;100647.28;4910565;29;20457;-74
2023/03/11 00:51:24;;;;;;;4.95;1.40;;;;;;;0.72;100.00;100652.53;4901235;29;20056;-73
2023/03/11 00:53:50;;;;;;;7.20;1.60;;;;;;;0.71;100.00;100653.47;4911627;29;20139;-74
2023/03/11 00:56:17;;;;;;;9.30;1.58;;;;;;;0.71;100.00;100661.22;4886207;29;20089;-74
2023/03/11 00:58:44;;;;;;;6.75;1.20;;;;;;;0.75;100.00;100658.38;4896731;29;20052;-74
2023/03/11 01:01:14;;;;;;;7.22;1.30;;;;;;;0.75;100.00;100660.13;4909128;29;20867;-74
2023/03/11 01:03:42;;;;;;;2.92;1.00;;;;;;;0.71;100.00;100663.81;4900205;29;20480;-73
2023/03/11 01:06:08;;;;;;;5.78;1.30;;;;;;;0.75;100.00;100662.72;4910632;29;20066;-73
2023/03/11 01:08:35;;;;;;;6.22;1.10;;;;;;;0.71;100.00;100667.22;4899103;29;20062;-74
2023/03/11 01:11:03;;;;;;;8.73;1.60;;;;;;;0.69;100.00;100665.66;4905771;29;20048;-74
2023/03/11 01:13:31;;;;;;;9.60;1.63;;;;;;;0.70;100.00;100664.72;4909861;29;20421;-74
2023/03/11 01:15:58;;;;;;;6.90;1.20;;;;;;;0.65;100.00;100670.13;4889410;29;20566;-74
2023/03/11 01:18:25;;;;;;;7.95;1.50;;;;;;;0.63;100.00;100661.66;4908152;29;20068;-74
2023/03/11 01:20:52;;;;;;;7.60;1.35;;;;;;;0.62;100.00;100661.72;4901845;29;20618;-73
2023/03/11 01:23:19;;;;;;;6.15;1.30;;;;;;;0.59;100.00;100663.56;4902483;29;20063;-74
2023/03/11 01:25:46;;;;;;;4.15;1.17;;;;;;;0.54;100.00;100675.06;4894978;29;20052;-74
2023/03/11 01:28:13;;;;;;;9.77;1.45;;;;;;;0.57;100.00;100680.91;4907383;29;20062;-74
2023/03/11 01:30:40;;;;;;;5.00;1.23;;;;;;;0.59;100.00;100684.22;4901591;29;20131;-74
2023/03/11 01:33:12;;;;;;;8.23;1.88;;;;;;;0.60;100.00;100685.03;4897828;29;20060;-74
2023/03/11 01:35:41;;;;;;;5.93;1.80;;;;;;;0.59;100.00;100691.13;4908054;29;20056;-74
2023/03/11 01:38:08;;;;;;;5.43;1.17;;;;;;;0.58;100.00;100698.03;4895852;29;20429;-73
2023/03/11 01:40:41;;;;;;;9.02;1.52;;;;;;;0.62;100.00;100698.69;4908694;29;20067;-73
2023/03/11 01:43:41;;;;;;;7.22;1.20;;;;;;;0.61;100.00;100701.34;4902984;29;20178;-74
2023/03/11 01:46:22;;;;;;;2.78;0.82;;;;;;;0.58;100.00;100695.44;4906522;29;20544;-74
2023/03/11 01:48:52;;;;;;;4.45;1.55;;;;;;;0.56;100.00;100697.28;4904075;29;20158;-73
2023/03/11 01:51:34;;;;;;;6.95;1.88;;;;;;;0.59;100.00;100704.88;4907478;29;20515;-74
2023/03/11 01:54:05;;;;;;;10.95;1.75;;;;;;;0.57;100.00;100703.31;4909922;29;20055;-74
2023/03/11 01:56:33;;;;;;;8.15;1.42;;;;;;;0.53;100.00;100701.78;4904688;29;20071;-74
2023/03/11 01:59:00;;;;;;;9.55;1.20;;;;;;;0.50;100.00;100700.22;4907660;29;20084;-73
2023/03/11 02:01:26;;;;;;;5.93;1.48;;;;;;;0.49;100.00;100708.88;4887401;29;20056;-73
2023/03/11 02:03:54;;;;;;;4.20;1.10;;;;;;;0.51;100.00;100703.63;4909496;29;20068;-72
2023/03/11 02:06:22;;;;;;;5.72;1.30;;;;;;;0.45;100.00;100711.69;4898349;29;20873;-73
2023/03/11 02:08:49;;;;;;;10.45;1.50;;;;;;;0.45;100.00;100702.22;4910874;29;20190;-73
2023/03/11 02:11:25;;;;;;;4.90;1.42;;;;;;;0.43;100.00;100704.03;4911060;29;20073;-74
2023/03/11 02:13:56;;;;;;;7.75;1.63;;;;;;;0.43;100.00;100708.38;4906286;29;20139;-73
2023/03/11 02:16:23;;;;;;;7.07;1.48;;;;;;;0.43;100.00;100705.78;4910902;29;20055;-73
2023/03/11 02:18:50;;;;;;;13.90;2.20;;;;;;;0.43;100.00;100705.78;4899731;29;20163;-73
2023/03/11 02:21:27;;;;;;;7.55;1.63;;;;;;;0.45;100.00;100712.56;4907009;29;20063;-73
2023/03/11 02:24:12;;;;;;;6.85;1.05;;;;;;;0.38;100.00;100714.63;4908740;29;20138;-74
2023/03/11 02:26:55;;;;;;;8.60;1.48;;;;;;;0.36;100.00;100718.22;4908660;29;20064;-72
2023/03/11 02:29:25;;;;;;;8.13;1.83;;;;;;;0.36;100.00;100723.38;4905087;29;20489;-72
2023/03/11 02:31:51;;;;;;;6.00;1.25;;;;;;;0.36;100.00;100720.78;4907511;29;20052;-72
2023/03/11 02:34:28;;;;;;;6.55;1.40;;;;;;;0.40;100.00;100719.69;4903708;29;20092;-74
2023/03/11 02:36:55;;;;;;;6.40;2.13;;;;;;;0.38;100.00;100718.94;4916460;29;20142;-73
2023/03/11 02:39:37;;;;;;;11.80;1.80;;;;;;;0.38;100.00;100727.53;4894262;29;20108;-74
2023/03/11 02:42:27;;;;;;;7.07;1.35;;;;;;;0.37;100.00;100728.44;4903231;29;20063;-74
2023/03/11 02:45:00;;;;;;;4.97;1.30;;;;;;;0.37;100.00;100728.44;4908076;29;20064;-73
2023/03/11 02:47:27;;;;;;;12.57;2.75;;;;;;;0.38;100.00;100739.59;4898392;29;20062;-73
2023/03/11 02:49:55;;;;;;;4.95;1.60;;;;;;;0.39;100.00;100744.69;4907368;29;20048;-74
2023/03/11 02:52:26;;;;;;;6.93;1.58;;;;;;;0.42;100.00;100748.00;4910318;29;20059;-74
2023/03/11 02:54:53;;;;;;;4.28;1.20;;;;;;;0.37;100.00;100731.03;4910382;29;20059;-73
2023/03/11 02:57:19;;;;;;;4.78;1.23;;;;;;;0.37;100.00;100737.91;4907095;29;20090;-73
2023/03/11 02:59:46;;;;;;;3.25;1.23;;;;;;;0.39;100.00;100736.09;4881399;29;20058;-73
2023/03/11 03:02:12;;;;;;;8.05;1.48;;;;;;;0.43;100.00;100731.59;4904876;29;20075;-74
2023/03/11 03:04:39;;;;;;;6.60;1.70;;;;;;;0.44;100.00;100728.94;4902654;29;20064;-74
2023/03/11 03:07:05;;;;;;;5.97;1.30;;;;;;;0.48;100.00;100725.28;4908300;29;20048;-74
2023/03/11 03:09:34;;;;;;;4.22;1.35;;;;;;;0.53;100.00;100725.00;4903544;29;20087;-74
2023/03/11 03:12:01;;;;;;;5.07;1.40;;;;;;;0.54;100.00;100729.28;4908630;29;20062;-74
2023/03/11 03:14:28;;;;;;;3.60;1.20;;;;;;;0.53;100.00;100731.03;4872862;29;20053;-73
2023/03/11 03:16:55;;;;;;;6.57;1.85;;;;;;;0.56;100.00;100738.59;4904216;29;20575;-73
2023/03/11 03:19:22;;;;;;;4.15;1.10;;;;;;;0.56;100.00;100737.75;4911102;29;20056;-73
2023/03/11 03:21:48;;;;;;;5.35;1.42;;;;;;;0.55;100.00;100738.69;4902664;29;20408;-74
2023/03/11 03:24:15;;;;;;;3.13;1.40;;;;;;;0.59;100.00;100741.00;4907841;29;20688;-73
2023/03/11 03:26:42;;;;;;;5.28;1.40;;;;;;;0.61;100.00;100745.25;4901080;29;20056;-73
2023/03/11 03:29:08;;;;;;;3.97;1.45;;;;;;;0.55;100.00;100749.84;4902432;29;20048;-73
2023/03/11 03:31:35;;;;;;;3.80;1.30;;;;;;;0.52;100.00;100750.00;4901327;29;20056;-73
2023/03/11 03:34:01;;;;;;;6.35;1.23;;;;;;;0.53;100.00;100755.97;4903336;29;20059;-74
2023/03/11 03:36:28;;;;;;;7.10;1.10;;;;;;;0.52;100.00;100762.06;4909240;29;20047;-74
2023/03/11 03:38:56;;;;;;;4.93;1.50;;;;;;;0.52;100.00;100770.66;4903087;29;20062;-74
2023/03/11 03:41:22;;;;;;;7.40;1.60;;;;;;;0.51;100.00;100763.84;4904446;29;20165;-74
2023/03/11 03:43:49;;;;;;;7.13;1.67;;;;;;;0.51;100.00;100784.47;4888277;29;20058;-74
2023/03/11 03:46:16;;;;;;;7.75;2.63;;;;;;;0.47;100.00;100784.72;4916716;29;20397;-73
2023/03/11 03:48:45;;;;;;;6.70;2.35;;;;;;;0.49;100.00;100786.31;4908835;29;20060;-74
2023/03/11 03:51:12;;;;;;;7.47;2.38;;;;;;;0.48;100.00;100786.38;4905161;29;20044;-74
2023/03/11 03:53:39;;;;;;;10.10;2.55;;;;;;;0.49;100.00;100788.03;4892582;29;20579;-74
2023/03/11 03:56:12;;;;;;;7.43;1.63;;;;;;;0.51;100.00;100792.22;4883910;29;20514;-73
2023/03/11 03:58:38;;;;;;;6.50;1.92;;;;;;;0.48;100.00;100786.38;4916743;29;20055;-74
2023/03/11 04:01:06;;;;;;;5.70;1.75;;;;;;;0.46;100.00;100788.22;4904622;29;20515;-74
2023/03/11 04:03:34;;;;;;;5.15;1.45;;;;;;;0.43;100.00;100790.94;4899415;29;20414;-73
2023/03/11 04:06:22;;;;;;;4.30;1.60;;;;;;;0.52;100.00;100799.03;4912179;29;20044;-74
2023/03/11 04:08:50;;;;;;;4.28;1.27;;;;;;;0.56;100.00;100804.88;4907366;29;20066;-74
2023/03/11 04:11:16;;;;;;;3.50;1.23;;;;;;;0.54;100.00;100802.38;4903859;29;20056;-74
2023/03/11 04:13:43;;;;;;;5.18;1.38;;;;;;;0.53;100.00;100808.47;4908910;29;20084;-74
2023/03/11 04:16:16;;;;;;;7.55;1.23;;;;;;;0.54;100.00;100804.94;4907238;29;20414;-73
2023/03/11 04:18:43;;;;;;;4.18;1.13;;;;;;;0.52;100.00;100809.34;4898299;29;20057;-74
2023/03/11 04:21:10;;;;;;;4.15;1.27;;;;;;;0.54;100.00;100812.69;4902104;29;20060;-74
2023/03/11 04:23:36;;;;;;;5.43;1.48;;;;;;;0.58;100.00;100815.94;4897561;29;20062;-73
2023/03/11 04:26:03;;;;;;;6.03;1.40;;;;;;;0.58;100.00;100814.19;4903323;29;20139;-74
2023/03/11 04:28:30;;;;;;;8.60;1.30;;;;;;;0.55;100.00;100814.38;4908970;29;20097;-74
2023/03/11 04:30:56;;;;;;;5.25;1.50;;;;;;;0.55;100.00;100818.72;4908352;29;20044;-74
2023/03/11 04:33:23;;;;;;;7.20;1.75;;;;;;;0.54;100.00;100822.19;4905324;29;20387;-75
2023/03/11 04:35:50;;;;;;;5.25;1.10;;;;;;;0.46;100.00;100820.00;4900354;29;20084;-74
2023/03/11 04:38:16;;;;;;;4.55;1.10;;;;;;;0.44;100.00;100823.59;4910653;29;20700;-73
2023/03/11 04:40:43;;;;;;;3.97;1.25;;;;;;;0.44;100.00;100819.25;4908080;29;20048;-74
2023/03/11 04:43:09;;;;;;;3.67;1.20;;;;;;;0.47;100.00;100826.84;4907696;29;20067;-74
2023/03/11 04:45:41;;;;;;;4.03;1.33;;;;;;;0.46;100.00;100835.50;4908933;29;20060;-75
2023/03/11 04:48:08;;;;;;;4.60;1.30;;;;;;;0.46;100.00;100832.91;4896551;29;20428;-74
2023/03/11 04:50:34;;;;;;;2.72;1.00;;;;;;;0.45;100.00;100831.28;4905018;29;20080;-75
2023/03/11 04:53:01;;;;;;;2.75;1.00;;;;;;;0.46;100.00;100830.34;4899799;29;20054;-75
2023/03/11 04:55:27;;;;;;;6.47;1.50;;;;;;;0.46;100.00;100835.50;4907088;29;20476;-74
2023/03/11 04:57:54;;;;;;;3.28;1.10;;;;;;;0.39;100.00;100837.59;4902044;29;20135;-73
2023/03/11 05:00:23;;;;;;;5.22;1.10;;;;;;;0.40;100.00;100843.56;4911569;29;20051;-75
2023/03/11 05:02:50;;;;;;;4.63;1.25;;;;;;;0.37;100.00;100841.13;4902779;29;20417;-74
2023/03/11 05:05:18;;;;;;;4.20;1.20;;;;;;;0.36;100.00;100847.22;4895393;29;20056;-74
2023/03/11 05:07:45;;;;;;;9.07;1.27;;;;;;;0.35;100.00;100848.97;4908797;29;20087;-74
2023/03/11 05:10:12;;;;;;;4.05;1.33;;;;;;;0.37;100.00;100852.31;4900099;29;20060;-73
2023/03/11 05:12:39;;;;;;;4.20;1.13;;;;;;;0.35;100.00;100848.13;4893884;29;20056;-75
2023/03/11 05:15:06;;;;;;;7.00;1.60;;;;;;;0.31;100.00;100851.78;4903067;29;20064;-75
2023/03/11 05:17:33;;;;;;;3.10;1.02;;;;;;;0.26;100.00;100851.22;4887004;29;20525;-77
2023/03/11 05:19:59;;;;;;;4.40;1.10;;;;;;;0.22;100.00;100847.94;4904856;29;20415;-75
2023/03/11 05:22:26;;;;;;;3.47;1.00;;;;;;;0.18;100.00;100855.00;4901164;29;20059;-75
2023/03/11 05:24:52;;;;;;;4.47;1.40;;;;;;;0.17;100.00;100852.50;4908296;29;20179;-74
2023/03/11 05:27:20;;;;;;;4.53;1.13;;;;;;;0.16;100.00;100856.84;4900192;29;20052;-75
2023/03/11 05:29:46;;;;;;;6.65;1.42;;;;;;;0.16;100.00;100858.59;4905162;29;20469;-75
2023/03/11 05:32:13;;;;;;;3.42;1.15;;;;;;;0.14;100.00;100858.66;4900599;29;20130;-74
2023/03/11 05:34:40;;;;;;;4.18;1.10;;;;;;;0.13;100.00;100854.41;4902034;29;20059;-75
2023/03/11 05:37:06;;;;;;;3.00;0.82;;;;;;;0.11;100.00;100858.78;4907363;29;20052;-75
2023/03/11 05:39:33;;;;;;;4.82;1.75;;;;;;;0.11;100.00;100855.41;4901543;29;20094;-74
2023/03/11 05:42:00;;;;;;;3.63;1.27;;;;;;;0.09;100.00;100867.53;4908576;29;20056;-74
2023/03/11 05:44:27;;;;;;;8.68;1.40;;;;;;;0.05;100.00;100868.59;4895086;29;20055;-75
2023/03/11 05:46:53;;;;;;;6.93;1.60;;;;;;;0.03;100.00;100873.00;4878074;29;20055;-74
2023/03/11 05:49:20;;;;;;;9.82;2.10;;;;;;;0.01;100.00;100875.66;4917993;29;20535;-75
2023/03/11 05:51:48;;;;;;;6.63;2.05;;;;;;;0.00;100.00;100876.59;4903651;29;20058;-75
2023/03/11 05:54:15;;;;;;;7.72;1.80;;;;;;;-0.05;100.00;100884.53;4909020;29;20097;-74
2023/03/11 05:56:44;;;;;;;5.43;1.45;;;;;;;-0.11;100.00;100876.28;4899888;29;20052;-72
2023/03/11 05:59:14;;;;;;;4.90;1.70;;;;;;;-0.17;100.00;100882.56;4905569;29;20056;-74
2023/03/11 06:01:42;;;;;;;5.70;1.23;;;;;;;-0.21;100.00;100888.78;4904121;29;20056;-75
2023/03/11 06:04:09;;;;;;;4.72;1.33;;;;;;;-0.21;100.00;100891.38;4914126;29;20087;-74
2023/03/11 06:06:39;;;;;;;6.90;1.23;;;;;;;-0.21;100.00;100901.69;4914559;29;20071;-74
2023/03/11 06:09:06;;;;;;;3.42;1.30;;;;;;;-0.24;100.00;100902.66;4904132;29;20604;-74
2023/03/11 06:11:33;;;;;;;2.38;1.10;;;;;;;-0.25;100.00;100907.91;4897445;29;20056;-74
2023/03/11 06:13:59;;;;;;;2.88;1.55;;;;;;;-0.25;100.00;100903.56;4917070;29;20104;-73
2023/03/11 06:16:26;;;;;;;3.83;0.95;;;;;;;-0.25;100.00;100910.47;4930787;29;20047;-73
2023/03/11 06:18:53;;;;;;;5.72;1.20;;;;;;;-0.25;100.00;100910.47;4924483;29;20603;-72
2023/03/11 06:21:22;;;;;;;5.40;1.35;;;;;;;-0.23;100.00;100918.97;4909087;29;20075;-74
2023/03/11 06:23:49;;;;;;;4.85;1.40;;;;;;;-0.22;100.00;100916.31;4907101;29;20066;-74
2023/03/11 06:26:19;;;;;;;4.30;1.50;;;;;;;-0.21;100.00;100923.13;4902994;29;20088;-74
2023/03/11 06:28:46;;;;;;;4.28;1.20;;;;;;;-0.22;100.00;100920.63;4913958;29;20219;-73
2023/03/11 06:31:18;;;;;;;4.68;1.20;;;;;;;-0.19;100.00;100920.50;4905116;29;20532;-73
2023/03/11 06:33:45;;;;;;;8.25;1.50;;;;;;;-0.22;100.00;100930.94;4911639;29;20066;-73
2023/03/11 06:36:13;;;;;;;3.97;1.58;;;;;;;-0.22;100.00;100936.94;4907681;29;20473;-74
2023/03/11 06:38:40;;;;;;;5.47;1.45;;;;;;;-0.23;100.00;100940.44;4897497;29;20059;-74
2023/03/11 06:41:07;;;;;;;2.53;1.10;;;;;;;-0.21;100.00;100936.03;4903648;29;20056;-74
2023/03/11 06:43:34;;;;;;;7.18;1.38;;;;;;;-0.19;100.00;100938.53;4905723;29;20132;-73
2023/03/11 06:46:08;;;;;;;7.18;1.50;;;;;;;-0.17;100.00;100941.88;4910670;29;20067;-74
2023/03/11 06:48:35;;;;;;;2.20;1.30;;;;;;;-0.18;100.00;100947.09;4888156;29;20108;-74
2023/03/11 06:51:01;;;;;;;16.00;1.70;;;;;;;-0.17;100.00;100941.06;4909593;29;20485;-72
2023/03/11 06:53:29;;;;;;;4.13;1.65;;;;;;;-0.13;100.00;100956.28;4900427;29;20070;-73
2023/03/11 06:56:06;;;;;;;7.88;1.52;;;;;;;-0.08;100.00;100959.50;4910541;29;20058;-72
2023/03/11 06:58:34;;;;;;;3.95;1.23;;;;;;;-0.05;100.00;100963.66;4909214;29;20420;-72
2023/03/11 07:01:03;;;;;;;4.70;1.20;;;;;;;-0.04;100.00;100967.88;4906031;29;20052;-73
2023/03/11 07:03:30;;;;;;;6.70;1.88;;;;;;;-0.07;100.00;100974.03;4911135;29;20056;-73
2023/03/11 07:05:57;;;;;;;3.95;1.33;;;;;;;-0.04;100.00;100978.19;4900942;29;20107;-73
2023/03/11 07:08:24;;;;;;;5.35;1.23;;;;;;;-0.04;100.00;100986.78;4905803;29;20630;-73
2023/03/11 07:11:05;;;;;;;4.10;1.23;;;;;;;-0.03;100.00;100978.13;4903868;29;20174;-73
2023/03/11 07:13:32;;;;;;;5.28;1.27;;;;;;;-0.06;100.00;100983.47;4910801;29;20064;-73
2023/03/11 07:16:00;;;;;;;5.40;1.65;;;;;;;-0.04;100.00;100989.38;4910330;29;20048;-72
2023/03/11 07:18:27;;;;;;;7.97;1.40;;;;;;;-0.05;100.00;100987.69;4907263;29;20060;-73
2023/03/11 07:20:53;;;;;;;3.95;1.23;;;;;;;-0.02;100.00;100991.84;4887255;29;20079;-73
2023/03/11 07:23:20;;;;;;;5.43;1.55;;;;;;;0.03;100.00;100995.06;4899609;29;20764;-73
2023/03/11 07:25:47;;;;;;;4.85;1.23;;;;;;;0.04;100.00;100995.88;4908197;29;20120;-73
2023/03/11 07:28:14;;;;;;;6.43;1.10;;;;;;;0.05;100.00;101008.72;4911509;29;20568;-73
2023/03/11 07:30:43;;;;;;;5.80;1.42;;;;;;;0.07;100.00;101009.47;4909370;29;20083;-73
2023/03/11 07:33:09;;;;;;;6.43;1.48;;;;;;;0.10;100.00;101014.50;4890892;29;20043;-73
2023/03/11 07:35:36;;;;;;;5.60;1.30;;;;;;;0.14;100.00;101010.03;4895510;29;20461;-73
2023/03/11 07:38:03;;;;;;;8.63;1.88;;;;;;;0.16;100.00;101013.38;4909561;29;20067;-73
2023/03/11 07:40:29;;;;;;;4.20;1.77;;;;;;;0.16;100.00;101010.78;4902472;29;20680;-74
2023/03/11 07:42:56;;;;;;;4.90;1.50;;;;;;;0.20;100.00;101012.31;4909913;29;20052;-74
2023/03/11 07:45:23;;;;;;;7.32;2.05;;;;;;;0.27;100.00;101020.56;4902753;29;21032;-74
2023/03/11 07:47:49;;;;;;;5.05;1.67;;;;;;;0.28;100.00;101012.75;4905449;29;20056;-74
2023/03/11 07:50:16;;;;;;;4.90;2.35;;;;;;;0.32;100.00;101016.84;4903887;29;20932;-74
2023/03/11 07:52:43;;;;;;;6.55;2.05;;;;;;;0.37;100.00;101022.63;4906222;29;20438;-74
2023/03/11 07:55:09;;;;;;;6.13;1.80;;;;;;;0.42;100.00;101024.97;4892501;29;20059;-74
2023/03/11 07:57:36;;;;;;;8.25;1.95;;;;;;;0.44;100.00;101030.91;4903516;29;20071;-74
2023/03/11 08:00:03;;;;;;;4.93;1.90;;;;;;;0.47;100.00;101029.91;4908635;29;20060;-73
2023/03/11 08:02:29;;;;;;;7.05;2.63;;;;;;;0.50;100.00;101030.59;4898531;29;20071;-74
2023/03/11 08:04:56;;;;;;;4.70;2.20;;;;;;;0.54;100.00;101024.34;4903159;29;20087;-73
2023/03/11 08:07:22;;;;;;;9.48;2.08;;;;;;;0.56;100.00;101032.84;4909167;29;20051;-73
2023/03/11 08:09:49;;;;;;;3.03;1.45;;;;;;;0.59;100.00;101032.72;4904071;29;20428;-73
2023/03/11 08:12:16;;;;;;;2.67;1.20;;;;;;;0.61;100.00;101037.81;4909104;29;20055;-73
2023/03/11 08:14:42;;;;;;;8.55;1.85;;;;;;;0.67;100.00;101044.41;4900204;29;20066;-73
2023/03/11 08:17:09;;;;;;;6.40;1.08;;;;;;;0.68;100.00;101043.50;4886725;29;20056;-72
2023/03/11 08:19:36;;;;;;;2.88;1.20;;;;;;;0.70;100.00;101052.81;4902226;29;20074;-72
2023/03/11 08:22:02;;;;;;;3.47;1.10;;;;;;;0.73;100.00;101049.25;4907658;29;20056;-72
2023/03/11 08:24:29;;;;;;;4.10;1.25;;;;;;;0.76;100.00;101054.25;4907069;29;20143;-72
2023/03/11 08:26:56;;;;;;;4.45;1.10;;;;;;;0.83;100.00;101055.63;4904243;29;20691;-71
2023/03/11 08:29:23;;;;;;;3.70;1.63;;;;;;;0.92;100.00;101055.16;4904543;29;20791;-71
2023/03/11 08:31:50;;;;;;;8.25;1.30;;;;;;;0.99;100.00;101060.84;4897433;29;20054;-71
2023/03/11 08:34:16;;;;;;;2.28;1.10;;;;;;;1.08;100.00;101055.22;4907614;29;20052;-70
2023/03/11 08:36:43;;;;;;;5.40;1.10;;;;;;;1.09;100.00;101056.03;4900247;29;20398;-71
2023/03/11 08:39:10;;;;;;;2.13;1.00;;;;;;;1.13;100.00;101052.38;4908232;29;20056;-70
2023/03/11 08:41:37;;;;;;;6.72;1.27;;;;;;;1.17;100.00;101051.31;4909483;29;20052;-70
2023/03/11 08:44:03;;;;;;;6.80;1.15;;;;;;;1.24;100.00;101051.84;4899984;29;20060;-70
2023/03/11 08:46:36;;;;;;;4.75;0.98;;;;;;;1.31;100.00;101042.81;4904546;29;20293;-70
2023/03/11 08:49:03;;;;;;;4.28;1.00;;;;;;;1.35;100.00;101050.34;4900926;29;20108;-70
2023/03/11 08:51:32;;;;;;;6.53;0.93;;;;;;;1.42;100.00;101055.19;4907799;29;20443;-70
2023/03/11 08:53:59;;;;;;;7.88;0.93;;;;;;;1.45;100.00;101058.44;4903536;29;20080;-70
2023/03/11 08:56:26;;;;;;;4.03;1.60;;;;;;;1.48;100.00;101060.03;4904817;29;20109;-70
2023/03/11 08:58:53;;;;;;;3.10;1.15;;;;;;;1.50;100.00;101069.34;4901614;29;20089;-70
2023/03/11 09:01:21;;;;;;;10.07;1.40;;;;;;;1.52;100.00;101067.53;4916791;29;20048;-73
2023/03/11 09:03:48;;;;;;;2.72;0.93;;;;;;;1.57;100.00;101072.47;4924145;29;20075;-71
2023/03/11 09:06:16;;;;;;;1.52;0.60;;;;;;;1.63;100.00;101073.88;4907406;29;20056;-72
2023/03/11 09:08:44;;;;;;;2.67;0.70;;;;;;;1.66;100.00;101071.97;4914165;29;20079;-71
2023/03/11 09:11:16;;;;;;;2.95;0.70;;;;;;;1.68;100.00;101072.72;4904702;29;20399;-72
2023/03/11 09:13:43;;;;;;;2.38;0.65;;;;;;;1.70;100.00;101073.47;4906060;29;20056;-71
2023/03/11 09:16:16;;;;;;;2.53;0.65;;;;;;;1.78;100.00;101075.63;4888237;29;20056;-70
2023/03/11 09:18:43;;;;;;;3.03;0.50;;;;;;;1.79;100.00;101077.31;4907427;29;20067;-71
2023/03/11 09:21:10;;;;;;;2.05;0.60;;;;;;;1.82;100.00;101091.81;4909167;29;20083;-71
2023/03/11 09:23:37;;;;;;;3.25;0.73;;;;;;;1.89;100.00;101090.59;4902124;29;20060;-71
2023/03/11 09:26:04;;;;;;;6.68;0.88;;;;;;;2.00;97.75;101101.19;4899591;29;20630;-71
2023/03/11 09:28:31;;;;;;;5.25;0.80;;;;;;;2.08;90.92;101101.59;4901700;29;20085;-72
2023/03/11 09:30:57;;;;;;;3.17;0.77;;;;;;;2.22;100.00;101105.16;4907098;29;20098;-72
2023/03/11 09:33:24;;;;;;;2.20;0.77;;;;;;;2.36;100.00;101102.63;4900463;29;20087;-72
2023/03/11 09:35:50;;;;;;;4.43;0.70;;;;;;;2.40;93.81;101104.13;4881628;29;20059;-72
2023/03/11 09:38:17;;;;;;;2.38;0.75;;;;;;;2.55;94.33;101113.63;4902780;29;20565;-73
2023/03/11 09:40:58;;;;;;;1.67;0.60;;;;;;;2.70;94.73;101114.47;4897914;29;20088;-73
2023/03/11 09:43:24;;;;;;;2.58;0.90;;;;;;;2.75;94.32;101114.22;4906928;29;20048;-73
2023/03/11 09:46:06;;;;;;;2.88;0.77;;;;;;;2.85;87.83;101104.16;4899699;29;20059;-73
2023/03/11 09:48:43;;;;;;;3.70;0.65;;;;;;;2.93;84.61;101112.31;4904625;29;20056;-73
2023/03/11 09:51:31;;;;;;;3.65;1.20;;;;;;;3.07;84.08;101114.09;4899330;29;20052;-72
2023/03/11 09:54:03;;;;;;;4.30;0.80;;;;;;;3.16;85.92;101111.81;4895091;29;20115;-73
2023/03/11 09:56:33;;;;;;;3.85;0.80;;;;;;;3.26;87.47;101111.25;4903891;29;20064;-73
2023/03/11 09:59:06;;;;;;;5.55;0.80;;;;;;;3.30;78.24;101115.34;4898171;29;20052;-74
2023/03/11 10:01:41;;;;;;;6.22;0.82;;;;;;;3.45;91.80;101121.34;4911492;29;20052;-74
2023/03/11 10:04:15;;;;;;;3.97;0.70;;;;;;;3.50;84.70;101111.53;4908197;29;20052;-73
2023/03/11 10:06:44;;;;;;;4.45;0.77;;;;;;;3.58;89.42;101122.25;4904394;29;20075;-75
2023/03/11 10:09:22;;;;;;;2.95;0.50;;;;;;;3.70;91.58;101121.50;4900535;29;20071;-74
2023/03/11 10:12:24;;;;;;;3.67;0.50;;;;;;;3.89;86.16;101117.78;4910461;29;20047;-74
2023/03/11 10:15:22;;;;;;;3.10;0.70;;;;;;;3.94;78.71;101121.75;4904406;29;20052;-75
2023/03/11 10:18:00;;;;;;;5.45;0.70;;;;;;;4.06;81.33;101111.53;4910674;29;20052;-75
2023/03/11 10:21:24;;;;;;;10.25;0.77;;;;;;;4.16;80.39;101110.03;4880546;29;20066;-76
2023/03/11 10:24:02;;;;;;;3.20;0.90;;;;;;;4.32;86.38;101115.88;4834906;29;20472;-76
2023/03/11 10:26:42;;;;;;;5.65;0.85;;;;;;;4.44;82.80;101113.44;4827292;29;20054;-77
2023/03/11 10:29:23;;;;;;;4.95;0.80;;;;;;;4.58;84.06;101117.72;4840859;29;20914;-77
2023/03/11 10:32:31;;;;;;;4.82;1.05;;;;;;;4.75;90.51;101107.88;4826902;29;20058;-76
2023/03/11 10:35:06;;;;;;;4.20;0.60;;;;;;;4.85;76.85;101107.28;4826560;29;20084;-75
2023/03/11 10:37:37;;;;;;;3.70;0.73;;;;;;;5.07;93.23;101117.06;4810836;29;21116;-76
2023/03/11 10:40:31;;;;;;;3.97;0.93;;;;;;;5.13;76.65;101114.06;4831649;29;20050;-76
2023/03/11 10:43:01;;;;;;;4.28;0.60;;;;;;;5.24;77.39;101121.13;4824287;29;20822;-76
2023/03/11 10:45:36;;;;;;;11.82;1.48;;;;;;;5.37;81.85;101121.97;4836773;29;20074;-75
2023/03/11 10:48:14;;;;;;;2.22;0.90;;;;;;;5.41;79.50;101126.03;4830326;29;20065;-75
2023/03/11 10:51:00;;;;;;;3.50;0.75;;;;;;;5.50;76.52;101125.38;4827418;29;20066;-76
2023/03/11 10:53:27;;;;;;;4.13;0.90;;;;;;;5.51;78.89;101129.66;4835759;29;20054;-76
2023/03/11 10:55:57;;;;;;;5.00;0.70;;;;;;;5.54;83.91;101132.03;4902532;29;20058;-75
2023/03/11 10:58:28;;;;;;;4.00;0.50;;;;;;;5.54;81.85;101124.22;4910621;29;20051;-76
2023/03/11 11:01:13;;;;;;;4.32;1.52;;;;;;;5.62;81.52;101130.66;4891677;29;20074;-76
2023/03/11 11:03:45;;;;;;;2.20;0.50;;;;;;;5.72;76.56;101118.66;4911173;29;20056;-76
2023/03/11 11:06:29;;;;;;;3.78;0.88;;;;;;;5.83;78.40;101123.97;4888987;29;20060;-76
2023/03/11 11:09:16;;;;;;;1.75;0.80;;;;;;;5.86;72.26;101117.69;4900437;29;20055;-77
2023/03/11 11:12:03;;;;;;;4.78;1.58;;;;;;;5.91;77.50;101123.41;4900306;29;20265;-74
2023/03/11 11:14:51;;;;;;;2.42;0.80;;;;;;;5.93;71.10;101124.97;4901235;29;20489;-76
2023/03/11 11:17:21;;;;;;;;;;;;;;;6.22;88.14;101122.09;4899159;29;20060;-74
2023/03/11 11:19:49;;;;;;;1.73;0.60;;;;;;;6.47;78.67;101122.94;4901529;29;19938;-75
2023/03/11 11:22:19;;;;;;;5.20;0.87;;;;;;;6.61;72.15;101119.31;4908058;29;20413;-75
2023/03/11 11:24:50;;;;;;;2.30;0.60;;;;;;;6.76;75.14;101118.16;4903778;29;20094;-76
2023/03/11 11:27:19;;;;;;;5.32;0.70;;;;;;;6.87;70.98;101117.34;4908585;29;20051;-77
2023/03/11 11:29:47;;;;;;;1.48;0.50;;;;;;;6.75;60.01;101126.94;4898397;29;20056;-75
2023/03/11 11:32:14;;;;;;;2.33;0.68;;;;;;;6.79;59.95;101125.75;4909851;29;20056;-73
2023/03/11 11:34:40;;;;;;;4.25;0.80;;;;;;;6.87;62.65;101112.97;4905342;29;20079;-73
2023/03/11 11:37:12;;;;;;;3.78;1.00;;;;;;;7.01;64.77;101121.53;4908159;29;20098;-73
2023/03/11 11:39:50;;;;;;;4.40;0.88;;;;;;;7.27;68.10;101122.16;4908711;29;20079;-74